sensor_id;sensor_type;location;lat;lon;timestamp;temperature;humidity
19363;DHT22;9817;50.80926400;5.16316200;2023-03-14T00:00:35;12.00;99.90
19363;DHT22;9817;50.80926400;5.16316200;2023-03-14T00:03:00;11.90;99.90
19363;DHT22;9817;50.80926400;5.16316200;2023-03-14T00:05:26;12.10;99.90
19363;DHT22;9817;50.80926400;5.16316200;2023-03-14T00:07:52;12.10;99.90
19363;DHT22;9817;50.80926400;5.16316200;2023-03-14T00:10:18;12.00;99.90
19363;DHT22;9817;50.80926400;5.16316200;2023-03-14T00:12:44;12.10;99.90
19363;DHT22;9817;50.80926400;5.16316200;2023-03-14T00:15:11;12.10;99.90
19363;DHT22;9817;50.80926400;5.16316200;2023-03-14T00:17:37;12.00;99.90
19363;DHT22;9817;50.80926400;5.16316200;2023-03-14T00:20:06;12.00;99.90
19363;DHT22;9817;50.80926400;5.16316200;2023-03-14T00:22:38;11.90;99.90
19363;DHT22;9817;50.80926400;5.16316200;2023-03-14T00:25:05;12.00;99.90
19363;DHT22;9817;50.80926400;5.16316200;2023-03-14T00:27:31;12.00;99.90
19363;DHT22;9817;50.80926400;5.16316200;2023-03-14T00:29:57;11.80;99.90
19363;DHT22;9817;50.80926400;5.16316200;2023-03-14T00:32:23;11.80;99.90
19363;DHT22;9817;50.80926400;5.16316200;2023-03-14T00:34:49;11.80;99.90
19363;DHT22;9817;50.80926400;5.16316200;2023-03-14T00:37:14;11.80;99.90
19363;DHT22;9817;50.80926400;5.16316200;2023-03-14T00:39:40;11.70;99.90
19363;DHT22;9817;50.80926400;5.16316200;2023-03-14T00:42:05;11.70;99.90
19363;DHT22;9817;50.80926400;5.16316200;2023-03-14T00:44:31;11.60;99.90
19363;DHT22;9817;50.80926400;5.16316200;2023-03-14T00:47:00;11.70;99.90
19363;DHT22;9817;50.80926400;5.16316200;2023-03-14T00:49:26;11.60;99.90
19363;DHT22;9817;50.80926400;5.16316200;2023-03-14T00:51:52;11.70;99.90
19363;DHT22;9817;50.80926400;5.16316200;2023-03-14T00:54:19;11.80;99.90
19363;DHT22;9817;50.80926400;5.16316200;2023-03-14T00:56:44;11.80;99.90
19363;DHT22;9817;50.80926400;5.16316200;2023-03-14T00:59:10;11.70;99.90
19363;DHT22;9817;50.80926400;5.16316200;2023-03-14T01:01:36;11.70;99.90
19363;DHT22;9817;50.80926400;5.16316200;2023-03-14T01:04:02;11.60;99.90
19363;DHT22;9817;50.80926400;5.16316200;2023-03-14T01:06:28;11.60;99.90
19363;DHT22;9817;50.80926400;5.16316200;2023-03-14T01:08:55;11.70;99.90
19363;DHT22;9817;50.80926400;5.16316200;2023-03-14T01:11:39;11.60;99.90
19363;DHT22;9817;50.80926400;5.16316200;2023-03-14T01:14:04;11.60;99.90
19363;DHT22;9817;50.80926400;5.16316200;2023-03-14T01:16:32;11.50;99.90
19363;DHT22;9817;50.80926400;5.16316200;2023-03-14T01:18:58;11.50;99.90
19363;DHT22;9817;50.80926400;5.16316200;2023-03-14T01:21:29;11.40;99.90
19363;DHT22;9817;50.80926400;5.16316200;2023-03-14T01:23:56;11.50;99.90
19363;DHT22;9817;50.80926400;5.16316200;2023-03-14T01:26:25;11.70;99.90
19363;DHT22;9817;50.80926400;5.16316200;2023-03-14T01:28:53;11.70;99.90
19363;DHT22;9817;50.80926400;5.16316200;2023-03-14T01:31:18;11.70;99.90
19363;DHT22;9817;50.80926400;5.16316200;2023-03-14T01:33:45;11.70;99.90
19363;DHT22;9817;50.80926400;5.16316200;2023-03-14T01:36:11;11.70;99.90
19363;DHT22;9817;50.80926400;5.16316200;2023-03-14T01:38:38;11.70;99.90
19363;DHT22;9817;50.80926400;5.16316200;2023-03-14T01:41:06;11.90;99.90
19363;DHT22;9817;50.80926400;5.16316200;2023-03-14T01:43:32;11.90;99.90
19363;DHT22;9817;50.80926400;5.16316200;2023-03-14T01:48:51;11.90;99.90
19363;DHT22;9817;50.80926400;5.16316200;2023-03-14T01:51:22;12.00;99.90
19363;DHT22;9817;50.80926400;5.16316200;2023-03-14T01:53:49;12.00;99.90
19363;DHT22;9817;50.80926400;5.16316200;2023-03-14T01:56:17;12.10;99.90
19363;DHT22;9817;50.80926400;5.16316200;2023-03-14T01:58:46;12.20;99.90
19363;DHT22;9817;50.80926400;5.16316200;2023-03-14T02:01:14;12.10;99.90
19363;DHT22;9817;50.80926400;5.16316200;2023-03-14T02:03:49;12.00;99.90
19363;DHT22;9817;50.80926400;5.16316200;2023-03-14T02:06:19;11.80;99.90
19363;DHT22;9817;50.80926400;5.16316200;2023-03-14T02:08:46;11.70;99.90
19363;DHT22;9817;50.80926400;5.16316200;2023-03-14T02:11:15;11.60;99.90
19363;DHT22;9817;50.80926400;5.16316200;2023-03-14T02:13:41;11.60;99.90
19363;DHT22;9817;50.80926400;5.16316200;2023-03-14T02:16:07;11.50;99.90
19363;DHT22;9817;50.80926400;5.16316200;2023-03-14T02:18:33;11.40;99.90
19363;DHT22;9817;50.80926400;5.16316200;2023-03-14T02:21:57;11.30;99.90
19363;DHT22;9817;50.80926400;5.16316200;2023-03-14T02:26:42;11.30;99.90
19363;DHT22;9817;50.80926400;5.16316200;2023-03-14T02:29:09;11.30;99.90
19363;DHT22;9817;50.80926400;5.16316200;2023-03-14T02:31:35;11.40;99.90
19363;DHT22;9817;50.80926400;5.16316200;2023-03-14T02:34:01;11.40;99.90
19363;DHT22;9817;50.80926400;5.16316200;2023-03-14T02:36:28;11.30;99.90
19363;DHT22;9817;50.80926400;5.16316200;2023-03-14T02:39:19;11.30;99.90
19363;DHT22;9817;50.80926400;5.16316200;2023-03-14T02:41:47;11.10;99.90
19363;DHT22;9817;50.80926400;5.16316200;2023-03-14T02:44:14;11.00;99.90
19363;DHT22;9817;50.80926400;5.16316200;2023-03-14T02:46:40;10.90;99.90
19363;DHT22;9817;50.80926400;5.16316200;2023-03-14T02:49:09;11.00;99.90
19363;DHT22;9817;50.80926400;5.16316200;2023-03-14T02:51:35;11.10;99.90
19363;DHT22;9817;50.80926400;5.16316200;2023-03-14T02:54:01;11.10;99.90
19363;DHT22;9817;50.80926400;5.16316200;2023-03-14T02:56:27;11.00;99.90
19363;DHT22;9817;50.80926400;5.16316200;2023-03-14T02:58:53;11.10;99.90
19363;DHT22;9817;50.80926400;5.16316200;2023-03-14T03:01:19;11.20;99.90
19363;DHT22;9817;50.80926400;5.16316200;2023-03-14T03:03:44;11.20;99.90
19363;DHT22;9817;50.80926400;5.16316200;2023-03-14T03:06:10;11.10;99.90
19363;DHT22;9817;50.80926400;5.16316200;2023-03-14T03:08:36;11.00;99.90
19363;DHT22;9817;50.80926400;5.16316200;2023-03-14T03:11:02;11.00;99.90
19363;DHT22;9817;50.80926400;5.16316200;2023-03-14T03:13:27;11.10;99.90
19363;DHT22;9817;50.80926400;5.16316200;2023-03-14T03:15:53;11.20;99.90
19363;DHT22;9817;50.80926400;5.16316200;2023-03-14T03:18:19;11.00;99.90
19363;DHT22;9817;50.80926400;5.16316200;2023-03-14T03:20:45;11.10;99.90
19363;DHT22;9817;50.80926400;5.16316200;2023-03-14T03:23:11;11.10;99.90
19363;DHT22;9817;50.80926400;5.16316200;2023-03-14T03:25:37;11.20;99.90
19363;DHT22;9817;50.80926400;5.16316200;2023-03-14T03:28:03;11.20;99.90
19363;DHT22;9817;50.80926400;5.16316200;2023-03-14T03:30:34;11.20;99.90
19363;DHT22;9817;50.80926400;5.16316200;2023-03-14T03:33:02;11.30;99.90
19363;DHT22;9817;50.80926400;5.16316200;2023-03-14T03:35:27;11.40;99.90
19363;DHT22;9817;50.80926400;5.16316200;2023-03-14T03:37:53;11.40;99.90
19363;DHT22;9817;50.80926400;5.16316200;2023-03-14T03:40:18;11.50;99.90
19363;DHT22;9817;50.80926400;5.16316200;2023-03-14T03:42:44;11.30;99.90
19363;DHT22;9817;50.80926400;5.16316200;2023-03-14T03:45:10;11.30;99.90
19363;DHT22;9817;50.80926400;5.16316200;2023-03-14T03:47:35;11.20;99.90
19363;DHT22;9817;50.80926400;5.16316200;2023-03-14T03:50:01;11.10;99.90
19363;DHT22;9817;50.80926400;5.16316200;2023-03-14T03:52:27;11.20;99.90
19363;DHT22;9817;50.80926400;5.16316200;2023-03-14T03:54:53;11.10;99.90
19363;DHT22;9817;50.80926400;5.16316200;2023-03-14T03:57:19;11.10;99.90
19363;DHT22;9817;50.80926400;5.16316200;2023-03-14T03:59:44;11.20;99.90
19363;DHT22;9817;50.80926400;5.16316200;2023-03-14T04:02:10;11.20;99.90
19363;DHT22;9817;50.80926400;5.16316200;2023-03-14T04:04:36;10.90;99.90
19363;DHT22;9817;50.80926400;5.16316200;2023-03-14T04:07:03;10.80;99.90
19363;DHT22;9817;50.80926400;5.16316200;2023-03-14T04:09:29;11.00;99.90
19363;DHT22;9817;50.80926400;5.16316200;2023-03-14T04:11:54;11.10;99.90
19363;DHT22;9817;50.80926400;5.16316200;2023-03-14T04:14:20;11.00;99.90
19363;DHT22;9817;50.80926400;5.16316200;2023-03-14T04:16:45;10.90;99.90
19363;DHT22;9817;50.80926400;5.16316200;2023-03-14T04:19:11;11.00;99.90
19363;DHT22;9817;50.80926400;5.16316200;2023-03-14T04:21:36;11.00;99.90
19363;DHT22;9817;50.80926400;5.16316200;2023-03-14T04:24:05;10.90;99.90
19363;DHT22;9817;50.80926400;5.16316200;2023-03-14T04:26:31;10.80;99.90
19363;DHT22;9817;50.80926400;5.16316200;2023-03-14T04:28:57;10.80;99.90
19363;DHT22;9817;50.80926400;5.16316200;2023-03-14T04:31:23;10.70;99.90
19363;DHT22;9817;50.80926400;5.16316200;2023-03-14T04:33:48;10.80;99.90
19363;DHT22;9817;50.80926400;5.16316200;2023-03-14T04:36:14;11.00;99.90
19363;DHT22;9817;50.80926400;5.16316200;2023-03-14T04:38:40;11.00;99.90
19363;DHT22;9817;50.80926400;5.16316200;2023-03-14T04:41:06;11.10;99.90
19363;DHT22;9817;50.80926400;5.16316200;2023-03-14T04:43:32;11.10;99.90
19363;DHT22;9817;50.80926400;5.16316200;2023-03-14T04:45:58;11.00;99.90
19363;DHT22;9817;50.80926400;5.16316200;2023-03-14T04:48:25;11.10;99.90
19363;DHT22;9817;50.80926400;5.16316200;2023-03-14T04:50:51;11.00;99.90
19363;DHT22;9817;50.80926400;5.16316200;2023-03-14T04:53:17;11.00;99.90
19363;DHT22;9817;50.80926400;5.16316200;2023-03-14T04:55:54;11.00;99.90
19363;DHT22;9817;50.80926400;5.16316200;2023-03-14T04:58:21;11.20;99.90
19363;DHT22;9817;50.80926400;5.16316200;2023-03-14T05:00:47;11.00;99.90
19363;DHT22;9817;50.80926400;5.16316200;2023-03-14T05:03:15;10.90;99.90
19363;DHT22;9817;50.80926400;5.16316200;2023-03-14T05:05:41;10.80;99.90
19363;DHT22;9817;50.80926400;5.16316200;2023-03-14T05:08:07;10.80;99.90
19363;DHT22;9817;50.80926400;5.16316200;2023-03-14T05:10:32;10.90;99.90
19363;DHT22;9817;50.80926400;5.16316200;2023-03-14T05:12:58;10.90;99.90
19363;DHT22;9817;50.80926400;5.16316200;2023-03-14T05:15:24;10.80;99.90
19363;DHT22;9817;50.80926400;5.16316200;2023-03-14T05:17:49;10.70;99.90
19363;DHT22;9817;50.80926400;5.16316200;2023-03-14T05:20:15;10.70;99.90
19363;DHT22;9817;50.80926400;5.16316200;2023-03-14T05:22:42;10.80;99.90
19363;DHT22;9817;50.80926400;5.16316200;2023-03-14T05:25:08;10.80;99.90
19363;DHT22;9817;50.80926400;5.16316200;2023-03-14T05:27:34;10.90;99.90
19363;DHT22;9817;50.80926400;5.16316200;2023-03-14T05:30:00;10.90;99.90
19363;DHT22;9817;50.80926400;5.16316200;2023-03-14T05:32:26;10.70;99.90
19363;DHT22;9817;50.80926400;5.16316200;2023-03-14T05:34:52;10.70;99.90
19363;DHT22;9817;50.80926400;5.16316200;2023-03-14T05:37:17;10.80;99.90
19363;DHT22;9817;50.80926400;5.16316200;2023-03-14T05:39:43;10.70;99.90
19363;DHT22;9817;50.80926400;5.16316200;2023-03-14T05:42:08;10.70;99.90
19363;DHT22;9817;50.80926400;5.16316200;2023-03-14T05:44:34;10.90;99.90
19363;DHT22;9817;50.80926400;5.16316200;2023-03-14T05:47:00;10.80;99.90
19363;DHT22;9817;50.80926400;5.16316200;2023-03-14T05:49:25;11.00;99.90
19363;DHT22;9817;50.80926400;5.16316200;2023-03-14T05:51:51;11.00;99.90
19363;DHT22;9817;50.80926400;5.16316200;2023-03-14T05:54:16;10.90;99.90
19363;DHT22;9817;50.80926400;5.16316200;2023-03-14T05:56:42;10.90;99.90
19363;DHT22;9817;50.80926400;5.16316200;2023-03-14T05:59:08;11.10;99.90
19363;DHT22;9817;50.80926400;5.16316200;2023-03-14T06:01:34;11.00;99.90
19363;DHT22;9817;50.80926400;5.16316200;2023-03-14T06:04:00;11.10;99.90
19363;DHT22;9817;50.80926400;5.16316200;2023-03-14T06:06:26;11.10;99.90
19363;DHT22;9817;50.80926400;5.16316200;2023-03-14T06:08:51;11.10;99.90
19363;DHT22;9817;50.80926400;5.16316200;2023-03-14T06:11:17;11.20;99.90
19363;DHT22;9817;50.80926400;5.16316200;2023-03-14T06:13:42;11.30;99.90
19363;DHT22;9817;50.80926400;5.16316200;2023-03-14T06:16:08;11.30;99.90
19363;DHT22;9817;50.80926400;5.16316200;2023-03-14T06:18:34;11.30;99.90
19363;DHT22;9817;50.80926400;5.16316200;2023-03-14T06:20:59;11.30;99.90
19363;DHT22;9817;50.80926400;5.16316200;2023-03-14T06:23:25;11.40;99.90
19363;DHT22;9817;50.80926400;5.16316200;2023-03-14T06:25:51;11.40;99.90
19363;DHT22;9817;50.80926400;5.16316200;2023-03-14T06:28:17;11.50;99.90
19363;DHT22;9817;50.80926400;5.16316200;2023-03-14T06:30:43;11.50;99.90
19363;DHT22;9817;50.80926400;5.16316200;2023-03-14T06:33:08;11.50;99.90
19363;DHT22;9817;50.80926400;5.16316200;2023-03-14T06:35:34;11.60;99.90
19363;DHT22;9817;50.80926400;5.16316200;2023-03-14T06:38:00;11.70;99.90
19363;DHT22;9817;50.80926400;5.16316200;2023-03-14T06:40:25;11.80;99.90
19363;DHT22;9817;50.80926400;5.16316200;2023-03-14T06:42:51;12.00;99.90
19363;DHT22;9817;50.80926400;5.16316200;2023-03-14T06:45:17;12.10;99.90
19363;DHT22;9817;50.80926400;5.16316200;2023-03-14T06:47:42;12.20;99.90
19363;DHT22;9817;50.80926400;5.16316200;2023-03-14T06:50:14;12.20;99.90
19363;DHT22;9817;50.80926400;5.16316200;2023-03-14T06:52:40;12.10;99.90
19363;DHT22;9817;50.80926400;5.16316200;2023-03-14T06:55:13;12.10;99.90
19363;DHT22;9817;50.80926400;5.16316200;2023-03-14T06:57:39;12.10;99.90
19363;DHT22;9817;50.80926400;5.16316200;2023-03-14T07:00:05;12.10;99.90
19363;DHT22;9817;50.80926400;5.16316200;2023-03-14T07:02:31;12.20;99.90
19363;DHT22;9817;50.80926400;5.16316200;2023-03-14T07:04:56;12.10;99.90
19363;DHT22;9817;50.80926400;5.16316200;2023-03-14T07:07:22;12.10;99.90
19363;DHT22;9817;50.80926400;5.16316200;2023-03-14T07:09:47;12.20;99.90
19363;DHT22;9817;50.80926400;5.16316200;2023-03-14T07:12:13;12.00;99.90
19363;DHT22;9817;50.80926400;5.16316200;2023-03-14T07:14:39;12.00;99.90
19363;DHT22;9817;50.80926400;5.16316200;2023-03-14T07:17:04;12.00;99.90
19363;DHT22;9817;50.80926400;5.16316200;2023-03-14T07:19:30;11.80;99.90
19363;DHT22;9817;50.80926400;5.16316200;2023-03-14T07:21:55;11.60;99.90
19363;DHT22;9817;50.80926400;5.16316200;2023-03-14T07:24:22;11.70;99.90
19363;DHT22;9817;50.80926400;5.16316200;2023-03-14T07:26:48;11.60;99.90
19363;DHT22;9817;50.80926400;5.16316200;2023-03-14T07:29:13;11.60;99.90
19363;DHT22;9817;50.80926400;5.16316200;2023-03-14T07:31:39;11.60;99.90
19363;DHT22;9817;50.80926400;5.16316200;2023-03-14T07:34:05;11.70;99.90
19363;DHT22;9817;50.80926400;5.16316200;2023-03-14T07:36:30;11.70;99.90
19363;DHT22;9817;50.80926400;5.16316200;2023-03-14T07:38:56;11.70;99.90
19363;DHT22;9817;50.80926400;5.16316200;2023-03-14T07:41:21;11.70;99.90
19363;DHT22;9817;50.80926400;5.16316200;2023-03-14T07:43:48;11.80;99.90
19363;DHT22;9817;50.80926400;5.16316200;2023-03-14T07:46:14;11.70;99.90
19363;DHT22;9817;50.80926400;5.16316200;2023-03-14T07:48:50;11.70;99.90
19363;DHT22;9817;50.80926400;5.16316200;2023-03-14T07:51:25;11.80;99.90
19363;DHT22;9817;50.80926400;5.16316200;2023-03-14T07:53:50;11.20;99.90
19363;DHT22;9817;50.80926400;5.16316200;2023-03-14T07:56:16;10.60;99.90
19363;DHT22;9817;50.80926400;5.16316200;2023-03-14T07:58:41;10.20;99.90
19363;DHT22;9817;50.80926400;5.16316200;2023-03-14T08:01:07;9.80;99.90
19363;DHT22;9817;50.80926400;5.16316200;2023-03-14T08:03:33;9.70;99.90
19363;DHT22;9817;50.80926400;5.16316200;2023-03-14T08:05:58;9.70;99.90
19363;DHT22;9817;50.80926400;5.16316200;2023-03-14T08:08:24;9.60;99.90
19363;DHT22;9817;50.80926400;5.16316200;2023-03-14T08:10:49;9.70;99.90
19363;DHT22;9817;50.80926400;5.16316200;2023-03-14T08:13:15;9.50;99.90
19363;DHT22;9817;50.80926400;5.16316200;2023-03-14T08:15:40;9.60;99.90
19363;DHT22;9817;50.80926400;5.16316200;2023-03-14T08:18:06;9.50;99.90
19363;DHT22;9817;50.80926400;5.16316200;2023-03-14T08:20:32;9.40;99.90
19363;DHT22;9817;50.80926400;5.16316200;2023-03-14T08:23:01;9.30;99.90
19363;DHT22;9817;50.80926400;5.16316200;2023-03-14T08:25:28;9.30;99.90
19363;DHT22;9817;50.80926400;5.16316200;2023-03-14T08:27:53;9.30;99.90
19363;DHT22;9817;50.80926400;5.16316200;2023-03-14T08:30:20;9.30;99.90
19363;DHT22;9817;50.80926400;5.16316200;2023-03-14T08:32:46;9.10;99.90
19363;DHT22;9817;50.80926400;5.16316200;2023-03-14T08:35:12;9.10;99.90
19363;DHT22;9817;50.80926400;5.16316200;2023-03-14T08:37:37;9.00;99.90
19363;DHT22;9817;50.80926400;5.16316200;2023-03-14T08:40:04;9.10;99.90
19363;DHT22;9817;50.80926400;5.16316200;2023-03-14T08:42:36;9.30;99.90
19363;DHT22;9817;50.80926400;5.16316200;2023-03-14T08:45:01;9.60;99.90
19363;DHT22;9817;50.80926400;5.16316200;2023-03-14T08:47:27;9.80;99.90
19363;DHT22;9817;50.80926400;5.16316200;2023-03-14T08:49:53;9.90;99.90
19363;DHT22;9817;50.80926400;5.16316200;2023-03-14T08:52:18;9.90;99.90
19363;DHT22;9817;50.80926400;5.16316200;2023-03-14T08:54:44;9.90;99.90
19363;DHT22;9817;50.80926400;5.16316200;2023-03-14T08:57:10;10.00;99.90
19363;DHT22;9817;50.80926400;5.16316200;2023-03-14T08:59:36;9.90;99.90
19363;DHT22;9817;50.80926400;5.16316200;2023-03-14T09:02:01;9.80;99.90
19363;DHT22;9817;50.80926400;5.16316200;2023-03-14T09:04:31;9.80;99.90
19363;DHT22;9817;50.80926400;5.16316200;2023-03-14T09:06:56;10.00;99.90
19363;DHT22;9817;50.80926400;5.16316200;2023-03-14T09:09:24;10.10;99.90
19363;DHT22;9817;50.80926400;5.16316200;2023-03-14T09:11:50;9.80;99.90
19363;DHT22;9817;50.80926400;5.16316200;2023-03-14T09:14:15;9.50;99.90
19363;DHT22;9817;50.80926400;5.16316200;2023-03-14T09:16:41;9.30;99.90
19363;DHT22;9817;50.80926400;5.16316200;2023-03-14T09:19:06;9.50;99.90
19363;DHT22;9817;50.80926400;5.16316200;2023-03-14T09:21:32;9.70;99.90
19363;DHT22;9817;50.80926400;5.16316200;2023-03-14T09:23:57;9.70;99.90
19363;DHT22;9817;50.80926400;5.16316200;2023-03-14T09:26:23;9.50;99.90
19363;DHT22;9817;50.80926400;5.16316200;2023-03-14T09:28:48;9.30;99.90
19363;DHT22;9817;50.80926400;5.16316200;2023-03-14T09:31:14;9.40;99.90
19363;DHT22;9817;50.80926400;5.16316200;2023-03-14T09:33:40;9.50;99.90
19363;DHT22;9817;50.80926400;5.16316200;2023-03-14T09:36:06;9.20;99.90
19363;DHT22;9817;50.80926400;5.16316200;2023-03-14T09:38:33;9.10;99.90
19363;DHT22;9817;50.80926400;5.16316200;2023-03-14T09:41:01;9.30;99.90
19363;DHT22;9817;50.80926400;5.16316200;2023-03-14T09:43:33;9.50;99.90
19363;DHT22;9817;50.80926400;5.16316200;2023-03-14T09:46:02;9.60;99.90
19363;DHT22;9817;50.80926400;5.16316200;2023-03-14T09:48:31;9.70;99.90
19363;DHT22;9817;50.80926400;5.16316200;2023-03-14T09:50:59;9.70;99.90
19363;DHT22;9817;50.80926400;5.16316200;2023-03-14T09:53:43;9.50;99.90
19363;DHT22;9817;50.80926400;5.16316200;2023-03-14T09:56:33;9.70;99.90
19363;DHT22;9817;50.80926400;5.16316200;2023-03-14T09:59:03;9.90;99.90
19363;DHT22;9817;50.80926400;5.16316200;2023-03-14T10:01:31;10.30;99.90
19363;DHT22;9817;50.80926400;5.16316200;2023-03-14T10:04:01;10.40;99.90
19363;DHT22;9817;50.80926400;5.16316200;2023-03-14T10:06:30;10.40;99.90
19363;DHT22;9817;50.80926400;5.16316200;2023-03-14T10:08:56;10.20;99.90
19363;DHT22;9817;50.80926400;5.16316200;2023-03-14T10:11:24;10.00;99.90
19363;DHT22;9817;50.80926400;5.16316200;2023-03-14T10:14:09;9.80;99.90
19363;DHT22;9817;50.80926400;5.16316200;2023-03-14T10:16:42;9.40;99.90
19363;DHT22;9817;50.80926400;5.16316200;2023-03-14T10:19:14;9.20;99.90
19363;DHT22;9817;50.80926400;5.16316200;2023-03-14T10:21:41;9.30;99.90
19363;DHT22;9817;50.80926400;5.16316200;2023-03-14T10:24:32;9.40;99.90
19363;DHT22;9817;50.80926400;5.16316200;2023-03-14T10:29:27;9.70;99.90
19363;DHT22;9817;50.80926400;5.16316200;2023-03-14T10:32:00;9.80;99.90
19363;DHT22;9817;50.80926400;5.16316200;2023-03-14T10:34:29;9.80;99.90
19363;DHT22;9817;50.80926400;5.16316200;2023-03-14T10:36:58;9.60;99.90
19363;DHT22;9817;50.80926400;5.16316200;2023-03-14T10:39:44;9.80;99.90
19363;DHT22;9817;50.80926400;5.16316200;2023-03-14T10:44:42;9.70;99.90
19363;DHT22;9817;50.80926400;5.16316200;2023-03-14T10:47:19;9.60;99.90
19363;DHT22;9817;50.80926400;5.16316200;2023-03-14T10:49:46;9.60;99.90
19363;DHT22;9817;50.80926400;5.16316200;2023-03-14T10:52:24;9.50;99.90
19363;DHT22;9817;50.80926400;5.16316200;2023-03-14T10:54:57;9.30;99.90
19363;DHT22;9817;50.80926400;5.16316200;2023-03-14T10:57:23;9.30;99.90
19363;DHT22;9817;50.80926400;5.16316200;2023-03-14T10:59:49;9.30;99.90
19363;DHT22;9817;50.80926400;5.16316200;2023-03-14T11:02:41;9.10;99.90
19363;DHT22;9817;50.80926400;5.16316200;2023-03-14T11:08:02;9.00;99.90
19363;DHT22;9817;50.80926400;5.16316200;2023-03-14T11:10:37;9.00;99.90
19363;DHT22;9817;50.80926400;5.16316200;2023-03-14T11:24:39;8.40;99.90
19363;DHT22;9817;50.80926400;5.16316200;2023-03-14T11:27:18;8.20;99.90
19363;DHT22;9817;50.80926400;5.16316200;2023-03-14T11:33:07;8.30;99.90
19363;DHT22;9817;50.80926400;5.16316200;2023-03-14T11:38:25;8.50;99.90
19363;DHT22;9817;50.80926400;5.16316200;2023-03-14T11:40:54;8.60;99.90
19363;DHT22;9817;50.80926400;5.16316200;2023-03-14T11:43:29;8.50;99.90
19363;DHT22;9817;50.80926400;5.16316200;2023-03-14T11:46:04;8.70;99.90
19363;DHT22;9817;50.80926400;5.16316200;2023-03-14T11:48:44;8.70;99.90
19363;DHT22;9817;50.80926400;5.16316200;2023-03-14T11:51:21;9.00;99.90
19363;DHT22;9817;50.80926400;5.16316200;2023-03-14T11:56:58;8.80;99.90
19363;DHT22;9817;50.80926400;5.16316200;2023-03-14T11:59:29;8.70;99.90
19363;DHT22;9817;50.80926400;5.16316200;2023-03-14T12:02:03;8.40;99.90
19363;DHT22;9817;50.80926400;5.16316200;2023-03-14T12:09:54;8.20;99.90
19363;DHT22;9817;50.80926400;5.16316200;2023-03-14T12:12:23;8.30;99.90
19363;DHT22;9817;50.80926400;5.16316200;2023-03-14T12:14:56;8.40;99.90
19363;DHT22;9817;50.80926400;5.16316200;2023-03-14T12:17:37;8.40;99.90
19363;DHT22;9817;50.80926400;5.16316200;2023-03-14T12:20:19;8.70;99.90
19363;DHT22;9817;50.80926400;5.16316200;2023-03-14T12:22:56;8.90;99.90
19363;DHT22;9817;50.80926400;5.16316200;2023-03-14T12:25:26;8.90;99.90
19363;DHT22;9817;50.80926400;5.16316200;2023-03-14T12:41:03;9.70;99.90
19363;DHT22;9817;50.80926400;5.16316200;2023-03-14T12:43:32;9.80;99.90
19363;DHT22;9817;50.80926400;5.16316200;2023-03-14T12:48:55;10.00;99.90
19363;DHT22;9817;50.80926400;5.16316200;2023-03-14T12:51:41;10.00;99.90
19363;DHT22;9817;50.80926400;5.16316200;2023-03-14T12:54:24;9.90;99.90
19363;DHT22;9817;50.80926400;5.16316200;2023-03-14T13:02:27;9.10;99.90
19363;DHT22;9817;50.80926400;5.16316200;2023-03-14T13:05:09;9.30;99.90
19363;DHT22;9817;50.80926400;5.16316200;2023-03-14T13:13:02;6.70;99.90
19363;DHT22;9817;50.80926400;5.16316200;2023-03-14T13:18:09;6.90;99.90
19363;DHT22;9817;50.80926400;5.16316200;2023-03-14T13:20:39;7.00;99.90
19363;DHT22;9817;50.80926400;5.16316200;2023-03-14T13:23:37;7.00;99.90
19363;DHT22;9817;50.80926400;5.16316200;2023-03-14T13:26:03;6.90;99.90
19363;DHT22;9817;50.80926400;5.16316200;2023-03-14T13:28:34;7.00;99.90
19363;DHT22;9817;50.80926400;5.16316200;2023-03-14T13:31:02;6.80;99.90
19363;DHT22;9817;50.80926400;5.16316200;2023-03-14T13:33:28;7.10;99.90
19363;DHT22;9817;50.80926400;5.16316200;2023-03-14T13:35:57;7.30;99.90
19363;DHT22;9817;50.80926400;5.16316200;2023-03-14T13:38:28;7.40;99.90
19363;DHT22;9817;50.80926400;5.16316200;2023-03-14T13:40:56;7.50;99.90
19363;DHT22;9817;50.80926400;5.16316200;2023-03-14T13:43:30;7.60;99.90
19363;DHT22;9817;50.80926400;5.16316200;2023-03-14T13:48:30;7.70;99.90
19363;DHT22;9817;50.80926400;5.16316200;2023-03-14T13:51:05;7.60;99.90
19363;DHT22;9817;50.80926400;5.16316200;2023-03-14T13:53:32;7.50;99.90
19363;DHT22;9817;50.80926400;5.16316200;2023-03-14T13:56:02;7.30;99.90
19363;DHT22;9817;50.80926400;5.16316200;2023-03-14T13:58:30;7.40;99.90
19363;DHT22;9817;50.80926400;5.16316200;2023-03-14T14:01:02;7.50;99.90
19363;DHT22;9817;50.80926400;5.16316200;2023-03-14T14:03:31;7.50;99.90
19363;DHT22;9817;50.80926400;5.16316200;2023-03-14T14:05:57;7.40;99.90
19363;DHT22;9817;50.80926400;5.16316200;2023-03-14T14:08:24;7.50;99.90
19363;DHT22;9817;50.80926400;5.16316200;2023-03-14T14:10:53;7.70;99.90
19363;DHT22;9817;50.80926400;5.16316200;2023-03-14T14:13:21;7.90;99.90
19363;DHT22;9817;50.80926400;5.16316200;2023-03-14T14:15:51;8.00;99.90
19363;DHT22;9817;50.80926400;5.16316200;2023-03-14T14:18:22;8.00;99.90
19363;DHT22;9817;50.80926400;5.16316200;2023-03-14T14:20:49;8.20;99.90
19363;DHT22;9817;50.80926400;5.16316200;2023-03-14T14:23:27;8.20;99.90
19363;DHT22;9817;50.80926400;5.16316200;2023-03-14T14:25:55;8.20;99.90
19363;DHT22;9817;50.80926400;5.16316200;2023-03-14T14:33:58;8.40;99.90
19363;DHT22;9817;50.80926400;5.16316200;2023-03-14T14:41:30;7.80;99.90
19363;DHT22;9817;50.80926400;5.16316200;2023-03-14T14:43:57;8.10;99.90
19363;DHT22;9817;50.80926400;5.16316200;2023-03-14T14:46:27;8.20;99.90
19363;DHT22;9817;50.80926400;5.16316200;2023-03-14T14:49:06;8.50;99.90
19363;DHT22;9817;50.80926400;5.16316200;2023-03-14T14:51:41;8.60;99.90
19363;DHT22;9817;50.80926400;5.16316200;2023-03-14T14:54:18;8.80;99.90
19363;DHT22;9817;50.80926400;5.16316200;2023-03-14T14:56:50;8.80;99.90
19363;DHT22;9817;50.80926400;5.16316200;2023-03-14T14:59:26;9.00;99.90
19363;DHT22;9817;50.80926400;5.16316200;2023-03-14T15:01:59;9.00;99.90
19363;DHT22;9817;50.80926400;5.16316200;2023-03-14T15:04:26;9.10;99.90
19363;DHT22;9817;50.80926400;5.16316200;2023-03-14T15:06:52;9.20;99.90